sensor_id;sensor_type;location;lat;lon;timestamp;P1;durP1;ratioP1;P2;durP2;ratioP2
77004;SDS011;67261;53.132;18.006;2024-01-15T00:02:26;12.40;;;6.30;;
77004;SDS011;67261;53.132;18.006;2024-01-15T00:04:53;11.80;;;5.90;;
77004;SDS011;67261;53.132;18.006;2024-01-15T00:07:20;9.30;;;5.00;;
77004;SDS011;67261;53.132;18.006;2024-01-15T00:09:47;10.10;;;6.00;;
77004;SDS011;67261;53.132;18.006;2024-01-15T00:12:14;9.70;;;5.70;;
77004;SDS011;67261;53.132;18.006;2024-01-15T00:14:41;11.90;;;6.70;;
77004;SDS011;67261;53.132;18.006;2024-01-15T00:17:08;11.70;;;6.70;;
77004;SDS011;67261;53.132;18.006;2024-01-15T00:19:35;11.40;;;6.30;;
77004;SDS011;67261;53.132;18.006;2024-01-15T00:22:02;10.00;;;5.10;;
77004;SDS011;67261;53.132;18.006;2024-01-15T00:24:29;8.90;;;5.00;;
77004;SDS011;67261;53.132;18.006;2024-01-15T00:26:57;10.50;;;5.70;;
77004;SDS011;67261;53.132;18.006;2024-01-15T00:29:23;12.00;;;6.40;;
77004;SDS011;67261;53.132;18.006;2024-01-15T00:31:50;10.90;;;5.90;;
77004;SDS011;67261;53.132;18.006;2024-01-15T00:34:17;11.00;;;5.90;;
77004;SDS011;67261;53.132;18.006;2024-01-15T00:36:44;11.70;;;6.10;;
77004;SDS011;67261;53.132;18.006;2024-01-15T00:39:11;8.70;;;4.40;;
77004;SDS011;67261;53.132;18.006;2024-01-15T00:41:38;11.90;;;6.40;;
77004;SDS011;67261;53.132;18.006;2024-01-15T00:44:05;12.60;;;6.30;;
77004;SDS011;67261;53.132;18.006;2024-01-15T00:46:35;14.20;;;7.80;;
77004;SDS011;67261;53.132;18.006;2024-01-15T00:49:09;12.60;;;6.80;;
77004;SDS011;67261;53.132;18.006;2024-01-15T00:51:36;11.20;;;5.90;;
77004;SDS011;67261;53.132;18.006;2024-01-15T00:54:02;9.60;;;5.50;;
77004;SDS011;67261;53.132;18.006;2024-01-15T00:56:29;10.80;;;6.10;;
77004;SDS011;67261;53.132;18.006;2024-01-15T00:58:56;11.20;;;5.80;;
77004;SDS011;67261;53.132;18.006;2024-01-15T01:01:24;11.90;;;6.70;;
77004;SDS011;67261;53.132;18.006;2024-01-15T01:03:50;10.90;;;6.10;;
77004;SDS011;67261;53.132;18.006;2024-01-15T01:06:17;10.50;;;5.90;;
77004;SDS011;67261;53.132;18.006;2024-01-15T01:08:44;10.90;;;6.00;;
77004;SDS011;67261;53.132;18.006;2024-01-15T01:11:17;12.00;;;6.10;;
77004;SDS011;67261;53.132;18.006;2024-01-15T01:13:44;12.00;;;6.90;;
77004;SDS011;67261;53.132;18.006;2024-01-15T01:16:11;10.00;;;5.70;;
77004;SDS011;67261;53.132;18.006;2024-01-15T01:18:38;10.90;;;5.80;;
77004;SDS011;67261;53.132;18.006;2024-01-15T01:21:05;10.30;;;5.80;;
77004;SDS011;67261;53.132;18.006;2024-01-15T01:23:32;12.00;;;6.10;;
77004;SDS011;67261;53.132;18.006;2024-01-15T01:25:59;10.80;;;6.20;;
77004;SDS011;67261;53.132;18.006;2024-01-15T01:28:27;10.60;;;6.50;;
77004;SDS011;67261;53.132;18.006;2024-01-15T01:30:54;12.10;;;6.70;;
77004;SDS011;67261;53.132;18.006;2024-01-15T01:33:21;12.40;;;7.20;;
77004;SDS011;67261;53.132;18.006;2024-01-15T01:35:48;8.60;;;5.20;;
77004;SDS011;67261;53.132;18.006;2024-01-15T01:38:15;10.30;;;5.50;;
77004;SDS011;67261;53.132;18.006;2024-01-15T01:40:42;10.60;;;6.10;;
77004;SDS011;67261;53.132;18.006;2024-01-15T01:43:09;8.60;;;4.90;;
77004;SDS011;67261;53.132;18.006;2024-01-15T01:45:37;11.10;;;5.90;;
77004;SDS011;67261;53.132;18.006;2024-01-15T01:48:05;11.30;;;6.50;;
77004;SDS011;67261;53.132;18.006;2024-01-15T01:50:32;8.80;;;4.80;;
77004;SDS011;67261;53.132;18.006;2024-01-15T01:53:00;9.20;;;5.40;;
77004;SDS011;67261;53.132;18.006;2024-01-15T01:55:30;9.50;;;5.40;;
77004;SDS011;67261;53.132;18.006;2024-01-15T01:57:59;10.70;;;6.30;;
77004;SDS011;67261;53.132;18.006;2024-01-15T02:00:27;10.90;;;5.60;;
77004;SDS011;67261;53.132;18.006;2024-01-15T02:02:54;10.20;;;5.80;;
77004;SDS011;67261;53.132;18.006;2024-01-15T02:05:22;8.80;;;4.70;;
77004;SDS011;67261;53.132;18.006;2024-01-15T02:07:49;10.40;;;6.40;;
77004;SDS011;67261;53.132;18.006;2024-01-15T02:10:16;9.80;;;5.10;;
77004;SDS011;67261;53.132;18.006;2024-01-15T02:12:43;9.50;;;6.00;;
77004;SDS011;67261;53.132;18.006;2024-01-15T02:15:10;9.70;;;5.20;;
77004;SDS011;67261;53.132;18.006;2024-01-15T02:17:55;8.00;;;4.90;;
77004;SDS011;67261;53.132;18.006;2024-01-15T02:20:24;8.50;;;4.90;;
77004;SDS011;67261;53.132;18.006;2024-01-15T02:22:52;9.30;;;5.50;;
77004;SDS011;67261;53.132;18.006;2024-01-15T02:25:19;8.70;;;4.60;;
77004;SDS011;67261;53.132;18.006;2024-01-15T02:27:47;8.60;;;4.90;;
77004;SDS011;67261;53.132;18.006;2024-01-15T02:30:14;8.80;;;4.00;;
77004;SDS011;67261;53.132;18.006;2024-01-15T02:32:42;9.30;;;4.90;;
77004;SDS011;67261;53.132;18.006;2024-01-15T02:35:09;8.70;;;5.30;;
77004;SDS011;67261;53.132;18.006;2024-01-15T02:37:35;6.50;;;3.70;;
77004;SDS011;67261;53.132;18.006;2024-01-15T02:40:03;8.70;;;4.70;;
77004;SDS011;67261;53.132;18.006;2024-01-15T02:42:30;8.70;;;4.90;;
77004;SDS011;67261;53.132;18.006;2024-01-15T02:44:57;9.40;;;4.60;;
77004;SDS011;67261;53.132;18.006;2024-01-15T02:47:24;8.70;;;4.70;;
77004;SDS011;67261;53.132;18.006;2024-01-15T02:49:51;8.90;;;5.10;;
77004;SDS011;67261;53.132;18.006;2024-01-15T02:52:18;7.60;;;4.20;;
77004;SDS011;67261;53.132;18.006;2024-01-15T02:54:45;8.70;;;3.90;;
77004;SDS011;67261;53.132;18.006;2024-01-15T02:57:12;9.30;;;4.50;;
77004;SDS011;67261;53.132;18.006;2024-01-15T02:59:39;8.00;;;4.20;;
77004;SDS011;67261;53.132;18.006;2024-01-15T03:02:06;9.10;;;4.70;;
77004;SDS011;67261;53.132;18.006;2024-01-15T03:04:33;9.30;;;4.80;;
77004;SDS011;67261;53.132;18.006;2024-01-15T03:07:00;8.70;;;4.80;;
77004;SDS011;67261;53.132;18.006;2024-01-15T03:09:27;7.40;;;4.00;;
77004;SDS011;67261;53.132;18.006;2024-01-15T03:11:54;7.90;;;4.40;;
77004;SDS011;67261;53.132;18.006;2024-01-15T03:14:21;10.70;;;5.30;;
77004;SDS011;67261;53.132;18.006;2024-01-15T03:16:47;9.80;;;5.30;;
77004;SDS011;67261;53.132;18.006;2024-01-15T03:19:14;10.10;;;5.30;;
77004;SDS011;67261;53.132;18.006;2024-01-15T03:21:41;9.60;;;5.10;;
77004;SDS011;67261;53.132;18.006;2024-01-15T03:24:08;9.10;;;4.70;;
77004;SDS011;67261;53.132;18.006;2024-01-15T03:26:35;9.80;;;5.40;;
77004;SDS011;67261;53.132;18.006;2024-01-15T03:29:02;10.20;;;5.40;;
77004;SDS011;67261;53.132;18.006;2024-01-15T03:31:29;10.10;;;5.80;;
77004;SDS011;67261;53.132;18.006;2024-01-15T03:33:56;9.30;;;5.60;;
77004;SDS011;67261;53.132;18.006;2024-01-15T03:36:23;10.00;;;5.70;;
77004;SDS011;67261;53.132;18.006;2024-01-15T03:38:50;10.50;;;5.70;;
77004;SDS011;67261;53.132;18.006;2024-01-15T03:41:17;10.60;;;6.10;;
77004;SDS011;67261;53.132;18.006;2024-01-15T03:43:44;11.50;;;6.30;;
77004;SDS011;67261;53.132;18.006;2024-01-15T03:46:11;10.80;;;5.30;;
77004;SDS011;67261;53.132;18.006;2024-01-15T03:48:39;11.20;;;6.10;;
77004;SDS011;67261;53.132;18.006;2024-01-15T03:51:06;12.10;;;6.50;;
77004;SDS011;67261;53.132;18.006;2024-01-15T03:53:33;12.00;;;5.70;;
77004;SDS011;67261;53.132;18.006;2024-01-15T03:56:00;12.30;;;6.30;;
77004;SDS011;67261;53.132;18.006;2024-01-15T03:58:27;11.60;;;5.80;;
77004;SDS011;67261;53.132;18.006;2024-01-15T04:00:53;10.20;;;5.50;;
77004;SDS011;67261;53.132;18.006;2024-01-15T04:03:20;11.20;;;5.80;;
77004;SDS011;67261;53.132;18.006;2024-01-15T04:05:47;13.80;;;6.60;;
77004;SDS011;67261;53.132;18.006;2024-01-15T04:08:14;17.70;;;8.50;;
77004;SDS011;67261;53.132;18.006;2024-01-15T04:10:41;17.20;;;8.40;;
77004;SDS011;67261;53.132;18.006;2024-01-15T04:13:08;12.40;;;6.00;;
77004;SDS011;67261;53.132;18.006;2024-01-15T04:15:35;14.70;;;7.40;;
77004;SDS011;67261;53.132;18.006;2024-01-15T04:18:02;14.30;;;6.90;;
77004;SDS011;67261;53.132;18.006;2024-01-15T04:20:31;20.50;;;8.90;;
77004;SDS011;67261;53.132;18.006;2024-01-15T04:22:58;14.70;;;6.70;;
77004;SDS011;67261;53.132;18.006;2024-01-15T04:25:25;12.20;;;6.10;;
77004;SDS011;67261;53.132;18.006;2024-01-15T04:27:51;9.40;;;4.60;;
77004;SDS011;67261;53.132;18.006;2024-01-15T04:30:19;11.10;;;5.40;;
77004;SDS011;67261;53.132;18.006;2024-01-15T04:32:46;9.70;;;4.20;;
77004;SDS011;67261;53.132;18.006;2024-01-15T04:35:12;9.10;;;3.90;;
77004;SDS011;67261;53.132;18.006;2024-01-15T04:37:40;7.70;;;3.50;;
77004;SDS011;67261;53.132;18.006;2024-01-15T04:40:07;6.30;;;3.40;;
77004;SDS011;67261;53.132;18.006;2024-01-15T04:42:34;12.80;;;6.20;;
77004;SDS011;67261;53.132;18.006;2024-01-15T04:45:01;7.80;;;3.70;;
77004;SDS011;67261;53.132;18.006;2024-01-15T04:47:29;6.60;;;2.50;;
77004;SDS011;67261;53.132;18.006;2024-01-15T04:49:56;8.10;;;3.00;;
77004;SDS011;67261;53.132;18.006;2024-01-15T04:52:23;6.80;;;2.80;;
77004;SDS011;67261;53.132;18.006;2024-01-15T04:54:50;8.30;;;3.80;;
77004;SDS011;67261;53.132;18.006;2024-01-15T04:57:17;8.30;;;3.60;;
77004;SDS011;67261;53.132;18.006;2024-01-15T04:59:44;7.20;;;3.40;;
77004;SDS011;67261;53.132;18.006;2024-01-15T05:02:11;7.00;;;3.40;;
77004;SDS011;67261;53.132;18.006;2024-01-15T05:04:38;6.70;;;3.00;;
77004;SDS011;67261;53.132;18.006;2024-01-15T05:07:06;6.90;;;3.10;;
77004;SDS011;67261;53.132;18.006;2024-01-15T05:09:33;6.80;;;3.40;;
77004;SDS011;67261;53.132;18.006;2024-01-15T05:12:00;6.50;;;2.40;;
77004;SDS011;67261;53.132;18.006;2024-01-15T05:14:27;10.40;;;3.40;;
77004;SDS011;67261;53.132;18.006;2024-01-15T05:16:54;10.50;;;3.70;;
77004;SDS011;67261;53.132;18.006;2024-01-15T05:19:21;6.50;;;3.20;;
77004;SDS011;67261;53.132;18.006;2024-01-15T05:21:48;8.20;;;3.00;;
77004;SDS011;67261;53.132;18.006;2024-01-15T05:24:15;6.80;;;3.10;;
77004;SDS011;67261;53.132;18.006;2024-01-15T05:26:41;5.90;;;2.70;;
77004;SDS011;67261;53.132;18.006;2024-01-15T05:29:08;9.20;;;3.10;;
77004;SDS011;67261;53.132;18.006;2024-01-15T05:31:35;6.70;;;2.80;;
77004;SDS011;67261;53.132;18.006;2024-01-15T05:34:02;6.80;;;2.60;;
77004;SDS011;67261;53.132;18.006;2024-01-15T05:36:29;5.70;;;2.10;;
77004;SDS011;67261;53.132;18.006;2024-01-15T05:38:56;5.10;;;2.00;;
77004;SDS011;67261;53.132;18.006;2024-01-15T05:41:23;5.00;;;1.90;;
77004;SDS011;67261;53.132;18.006;2024-01-15T05:43:50;9.10;;;3.00;;
77004;SDS011;67261;53.132;18.006;2024-01-15T05:46:17;6.40;;;2.80;;
77004;SDS011;67261;53.132;18.006;2024-01-15T05:48:44;9.50;;;2.60;;
77004;SDS011;67261;53.132;18.006;2024-01-15T05:51:12;5.30;;;2.10;;
77004;SDS011;67261;53.132;18.006;2024-01-15T05:53:39;7.00;;;2.00;;
77004;SDS011;67261;53.132;18.006;2024-01-15T05:56:08;6.50;;;1.70;;
77004;SDS011;67261;53.132;18.006;2024-01-15T05:58:36;5.40;;;1.80;;
77004;SDS011;67261;53.132;18.006;2024-01-15T06:01:04;8.10;;;2.30;;
77004;SDS011;67261;53.132;18.006;2024-01-15T06:03:30;6.10;;;2.10;;
77004;SDS011;67261;53.132;18.006;2024-01-15T06:05:57;8.10;;;2.60;;
77004;SDS011;67261;53.132;18.006;2024-01-15T06:08:24;11.70;;;3.80;;
77004;SDS011;67261;53.132;18.006;2024-01-15T06:10:53;8.20;;;3.50;;
77004;SDS011;67261;53.132;18.006;2024-01-15T06:13:20;7.60;;;3.40;;
77004;SDS011;67261;53.132;18.006;2024-01-15T06:15:48;8.70;;;4.10;;
77004;SDS011;67261;53.132;18.006;2024-01-15T06:18:15;9.30;;;3.50;;
77004;SDS011;67261;53.132;18.006;2024-01-15T06:20:42;7.70;;;3.20;;
77004;SDS011;67261;53.132;18.006;2024-01-15T06:23:09;7.50;;;3.70;;
77004;SDS011;67261;53.132;18.006;2024-01-15T06:25:36;8.50;;;4.20;;
77004;SDS011;67261;53.132;18.006;2024-01-15T06:28:03;8.50;;;3.90;;
77004;SDS011;67261;53.132;18.006;2024-01-15T06:30:31;7.40;;;3.00;;
77004;SDS011;67261;53.132;18.006;2024-01-15T06:32:58;7.00;;;2.40;;
77004;SDS011;67261;53.132;18.006;2024-01-15T06:35:25;5.40;;;2.70;;
77004;SDS011;67261;53.132;18.006;2024-01-15T06:37:52;8.40;;;3.10;;
77004;SDS011;67261;53.132;18.006;2024-01-15T06:40:19;7.70;;;3.50;;
77004;SDS011;67261;53.132;18.006;2024-01-15T06:42:47;8.40;;;4.30;;
77004;SDS011;67261;53.132;18.006;2024-01-15T06:45:14;13.50;;;7.40;;
77004;SDS011;67261;53.132;18.006;2024-01-15T06:47:41;11.50;;;5.50;;
77004;SDS011;67261;53.132;18.006;2024-01-15T06:50:08;11.50;;;4.70;;
77004;SDS011;67261;53.132;18.006;2024-01-15T06:52:35;10.80;;;4.80;;
77004;SDS011;67261;53.132;18.006;2024-01-15T06:55:03;11.60;;;5.00;;
77004;SDS011;67261;53.132;18.006;2024-01-15T06:57:30;13.50;;;5.80;;
77004;SDS011;67261;53.132;18.006;2024-01-15T06:59:57;17.50;;;7.40;;
77004;SDS011;67261;53.132;18.006;2024-01-15T07:02:24;15.20;;;7.50;;
77004;SDS011;67261;53.132;18.006;2024-01-15T07:04:51;10.10;;;5.60;;
77004;SDS011;67261;53.132;18.006;2024-01-15T07:07:18;8.80;;;4.30;;
77004;SDS011;67261;53.132;18.006;2024-01-15T07:09:45;10.00;;;3.90;;
77004;SDS011;67261;53.132;18.006;2024-01-15T07:12:12;9.20;;;4.10;;
77004;SDS011;67261;53.132;18.006;2024-01-15T07:14:39;8.10;;;3.80;;
77004;SDS011;67261;53.132;18.006;2024-01-15T07:17:06;10.20;;;3.90;;
77004;SDS011;67261;53.132;18.006;2024-01-15T07:19:33;12.00;;;4.30;;
77004;SDS011;67261;53.132;18.006;2024-01-15T07:22:00;7.80;;;3.70;;
77004;SDS011;67261;53.132;18.006;2024-01-15T07:24:27;10.50;;;4.50;;
77004;SDS011;67261;53.132;18.006;2024-01-15T07:26:54;10.80;;;3.80;;
77004;SDS011;67261;53.132;18.006;2024-01-15T07:29:21;9.30;;;4.20;;
77004;SDS011;67261;53.132;18.006;2024-01-15T07:31:49;13.20;;;4.70;;
77004;SDS011;67261;53.132;18.006;2024-01-15T07:34:17;10.80;;;4.40;;
77004;SDS011;67261;53.132;18.006;2024-01-15T07:36:44;12.30;;;5.40;;
77004;SDS011;67261;53.132;18.006;2024-01-15T07:39:12;14.50;;;5.90;;
77004;SDS011;67261;53.132;18.006;2024-01-15T07:41:39;12.80;;;6.60;;
77004;SDS011;67261;53.132;18.006;2024-01-15T07:44:06;13.80;;;7.20;;
77004;SDS011;67261;53.132;18.006;2024-01-15T07:46:33;12.00;;;4.80;;
77004;SDS011;67261;53.132;18.006;2024-01-15T07:49:01;13.20;;;6.30;;
77004;SDS011;67261;53.132;18.006;2024-01-15T07:51:28;12.90;;;6.10;;
77004;SDS011;67261;53.132;18.006;2024-01-15T07:53:55;10.10;;;5.70;;
77004;SDS011;67261;53.132;18.006;2024-01-15T07:56:23;9.20;;;4.30;;
77004;SDS011;67261;53.132;18.006;2024-01-15T07:58:50;21.30;;;10.50;;
77004;SDS011;67261;53.132;18.006;2024-01-15T08:01:17;29.80;;;12.50;;
77004;SDS011;67261;53.132;18.006;2024-01-15T08:03:44;26.70;;;12.90;;
77004;SDS011;67261;53.132;18.006;2024-01-15T08:06:11;22.20;;;10.20;;
77004;SDS011;67261;53.132;18.006;2024-01-15T08:08:38;29.40;;;16.60;;
77004;SDS011;67261;53.132;18.006;2024-01-15T08:11:05;16.00;;;10.10;;
77004;SDS011;67261;53.132;18.006;2024-01-15T08:13:32;16.60;;;10.60;;
77004;SDS011;67261;53.132;18.006;2024-01-15T08:15:59;11.30;;;5.80;;
77004;SDS011;67261;53.132;18.006;2024-01-15T08:18:26;10.10;;;4.80;;
77004;SDS011;67261;53.132;18.006;2024-01-15T08:20:53;10.00;;;4.30;;
77004;SDS011;67261;53.132;18.006;2024-01-15T08:23:20;10.00;;;6.00;;
77004;SDS011;67261;53.132;18.006;2024-01-15T08:25:47;10.40;;;6.20;;
77004;SDS011;67261;53.132;18.006;2024-01-15T08:28:15;13.70;;;6.90;;
77004;SDS011;67261;53.132;18.006;2024-01-15T08:30:42;12.60;;;7.30;;
77004;SDS011;67261;53.132;18.006;2024-01-15T08:33:09;14.60;;;7.80;;
77004;SDS011;67261;53.132;18.006;2024-01-15T08:35:36;11.60;;;6.30;;
77004;SDS011;67261;53.132;18.006;2024-01-15T08:38:03;10.40;;;4.90;;
77004;SDS011;67261;53.132;18.006;2024-01-15T08:40:30;10.50;;;5.80;;
77004;SDS011;67261;53.132;18.006;2024-01-15T08:42:57;11.60;;;6.50;;
77004;SDS011;67261;53.132;18.006;2024-01-15T08:45:24;15.10;;;7.80;;
77004;SDS011;67261;53.132;18.006;2024-01-15T08:47:51;17.60;;;8.10;;
77004;SDS011;67261;53.132;18.006;2024-01-15T08:50:18;14.90;;;6.90;;
77004;SDS011;67261;53.132;18.006;2024-01-15T08:52:45;10.60;;;5.30;;
77004;SDS011;67261;53.132;18.006;2024-01-15T08:55:13;11.30;;;5.40;;
77004;SDS011;67261;53.132;18.006;2024-01-15T08:57:40;6.50;;;3.40;;
77004;SDS011;67261;53.132;18.006;2024-01-15T09:00:07;10.30;;;5.30;;
77004;SDS011;67261;53.132;18.006;2024-01-15T09:05:02;8.60;;;4.60;;
77004;SDS011;67261;53.132;18.006;2024-01-15T09:07:30;8.20;;;4.80;;
77004;SDS011;67261;53.132;18.006;2024-01-15T09:09:59;8.90;;;4.40;;
77004;SDS011;67261;53.132;18.006;2024-01-15T09:14:54;12.80;;;5.20;;
77004;SDS011;67261;53.132;18.006;2024-01-15T09:17:21;9.40;;;4.70;;
77004;SDS011;67261;53.132;18.006;2024-01-15T09:19:50;8.70;;;3.60;;
77004;SDS011;67261;53.132;18.006;2024-01-15T09:22:17;10.60;;;5.00;;
77004;SDS011;67261;53.132;18.006;2024-01-15T09:24:47;12.00;;;5.10;;
77004;SDS011;67261;53.132;18.006;2024-01-15T09:27:14;29.90;;;14.40;;
77004;SDS011;67261;53.132;18.006;2024-01-15T09:29:41;43.40;;;18.90;;
77004;SDS011;67261;53.132;18.006;2024-01-15T09:32:10;15.50;;;8.90;;
77004;SDS011;67261;53.132;18.006;2024-01-15T09:34:38;14.50;;;6.90;;
77004;SDS011;67261;53.132;18.006;2024-01-15T09:37:05;13.80;;;6.70;;
77004;SDS011;67261;53.132;18.006;2024-01-15T09:39:32;16.70;;;9.00;;
77004;SDS011;67261;53.132;18.006;2024-01-15T09:41:59;16.90;;;10.30;;
77004;SDS011;67261;53.132;18.006;2024-01-15T09:46:55;18.20;;;10.00;;
77004;SDS011;67261;53.132;18.006;2024-01-15T09:49:23;12.50;;;8.40;;
77004;SDS011;67261;53.132;18.006;2024-01-15T09:51:50;14.30;;;7.00;;
77004;SDS011;67261;53.132;18.006;2024-01-15T09:54:18;16.40;;;9.50;;
77004;SDS011;67261;53.132;18.006;2024-01-15T09:56:46;10.50;;;6.20;;
77004;SDS011;67261;53.132;18.006;2024-01-15T09:59:17;16.20;;;8.80;;
77004;SDS011;67261;53.132;18.006;2024-01-15T10:01:45;18.90;;;9.20;;
77004;SDS011;67261;53.132;18.006;2024-01-15T10:04:14;13.40;;;7.10;;
77004;SDS011;67261;53.132;18.006;2024-01-15T10:06:42;20.90;;;7.90;;
77004;SDS011;67261;53.132;18.006;2024-01-15T10:09:12;13.50;;;5.90;;
77004;SDS011;67261;53.132;18.006;2024-01-15T10:11:43;11.70;;;4.80;;
77004;SDS011;67261;53.132;18.006;2024-01-15T10:14:11;11.00;;;5.00;;
77004;SDS011;67261;53.132;18.006;2024-01-15T10:16:39;10.00;;;5.30;;
77004;SDS011;67261;53.132;18.006;2024-01-15T10:19:07;9.10;;;4.50;;
77004;SDS011;67261;53.132;18.006;2024-01-15T10:21:35;10.40;;;5.40;;
77004;SDS011;67261;53.132;18.006;2024-01-15T10:24:03;13.20;;;7.00;;
77004;SDS011;67261;53.132;18.006;2024-01-15T10:26:31;15.30;;;6.60;;
77004;SDS011;67261;53.132;18.006;2024-01-15T10:28:59;8.70;;;4.40;;
77004;SDS011;67261;53.132;18.006;2024-01-15T10:33:54;10.10;;;4.40;;
77004;SDS011;67261;53.132;18.006;2024-01-15T10:36:21;12.30;;;4.90;;
77004;SDS011;67261;53.132;18.006;2024-01-15T10:41:16;12.50;;;5.60;;
77004;SDS011;67261;53.132;18.006;2024-01-15T10:43:43;16.80;;;7.60;;
77004;SDS011;67261;53.132;18.006;2024-01-15T10:46:11;15.20;;;5.90;;
77004;SDS011;67261;53.132;18.006;2024-01-15T10:48:39;18.40;;;7.70;;
77004;SDS011;67261;53.132;18.006;2024-01-15T10:51:06;16.30;;;7.00;;
77004;SDS011;67261;53.132;18.006;2024-01-15T10:53:38;14.00;;;7.00;;
77004;SDS011;67261;53.132;18.006;2024-01-15T10:56:08;15.80;;;7.20;;
77004;SDS011;67261;53.132;18.006;2024-01-15T10:58:39;15.70;;;7.10;;
77004;SDS011;67261;53.132;18.006;2024-01-15T11:01:06;12.70;;;7.30;;
77004;SDS011;67261;53.132;18.006;2024-01-15T11:03:33;10.80;;;5.80;;
77004;SDS011;67261;53.132;18.006;2024-01-15T11:06:01;10.50;;;5.80;;
77004;SDS011;67261;53.132;18.006;2024-01-15T11:08:30;9.90;;;5.50;;
77004;SDS011;67261;53.132;18.006;2024-01-15T11:10:57;9.90;;;5.80;;
77004;SDS011;67261;53.132;18.006;2024-01-15T11:15:58;8.90;;;6.00;;
77004;SDS011;67261;53.132;18.006;2024-01-15T11:18:36;13.90;;;7.60;;
77004;SDS011;67261;53.132;18.006;2024-01-15T11:23:46;16.80;;;9.90;;
77004;SDS011;67261;53.132;18.006;2024-01-15T11:26:31;13.70;;;6.50;;
77004;SDS011;67261;53.132;18.006;2024-01-15T11:29:05;14.90;;;7.30;;
77004;SDS011;67261;53.132;18.006;2024-01-15T11:34:03;15.00;;;8.20;;
77004;SDS011;67261;53.132;18.006;2024-01-15T11:37:00;11.70;;;6.30;;
77004;SDS011;67261;53.132;18.006;2024-01-15T11:42:02;13.80;;;7.60;;
77004;SDS011;67261;53.132;18.006;2024-01-15T11:44:30;15.40;;;10.90;;
77004;SDS011;67261;53.132;18.006;2024-01-15T11:46:58;16.00;;;8.00;;
77004;SDS011;67261;53.132;18.006;2024-01-15T11:52:24;11.10;;;4.50;;
77004;SDS011;67261;53.132;18.006;2024-01-15T11:57:28;8.50;;;3.40;;
77004;SDS011;67261;53.132;18.006;2024-01-15T11:59:58;6.90;;;3.30;;
77004;SDS011;67261;53.132;18.006;2024-01-15T12:02:28;6.50;;;2.60;;
77004;SDS011;67261;53.132;18.006;2024-01-15T12:05:16;8.90;;;3.80;;
77004;SDS011;67261;53.132;18.006;2024-01-15T12:07:51;6.90;;;2.50;;
77004;SDS011;67261;53.132;18.006;2024-01-15T12:10:42;5.70;;;2.80;;
77004;SDS011;67261;53.132;18.006;2024-01-15T12:13:13;7.20;;;3.50;;
77004;SDS011;67261;53.132;18.006;2024-01-15T12:15:48;9.00;;;3.30;;
77004;SDS011;67261;53.132;18.006;2024-01-15T12:18:38;18.50;;;12.40;;
77004;SDS011;67261;53.132;18.006;2024-01-15T12:21:07;7.90;;;3.90;;
77004;SDS011;67261;53.132;18.006;2024-01-15T12:23:36;6.70;;;2.90;;
77004;SDS011;67261;53.132;18.006;2024-01-15T12:26:03;6.10;;;2.40;;
77004;SDS011;67261;53.132;18.006;2024-01-15T12:28:31;5.80;;;2.80;;
77004;SDS011;67261;53.132;18.006;2024-01-15T12:31:03;8.60;;;4.60;;
77004;SDS011;67261;53.132;18.006;2024-01-15T12:33:32;6.50;;;3.00;;
77004;SDS011;67261;53.132;18.006;2024-01-15T12:36:03;11.70;;;4.70;;
77004;SDS011;67261;53.132;18.006;2024-01-15T12:38:44;8.90;;;4.70;;
77004;SDS011;67261;53.132;18.006;2024-01-15T12:41:11;7.60;;;4.20;;
77004;SDS011;67261;53.132;18.006;2024-01-15T12:43:39;9.10;;;3.60;;
77004;SDS011;67261;53.132;18.006;2024-01-15T12:46:09;9.30;;;4.70;;
77004;SDS011;67261;53.132;18.006;2024-01-15T12:48:36;6.80;;;2.80;;
77004;SDS011;67261;53.132;18.006;2024-01-15T12:51:05;5.60;;;2.00;;
77004;SDS011;67261;53.132;18.006;2024-01-15T12:53:34;4.40;;;2.20;;
77004;SDS011;67261;53.132;18.006;2024-01-15T12:56:04;6.70;;;3.10;;
77004;SDS011;67261;53.132;18.006;2024-01-15T12:58:32;5.90;;;1.70;;
77004;SDS011;67261;53.132;18.006;2024-01-15T13:00:59;5.30;;;2.00;;
77004;SDS011;67261;53.132;18.006;2024-01-15T13:03:26;4.30;;;2.20;;
77004;SDS011;67261;53.132;18.006;2024-01-15T13:05:53;6.70;;;2.40;;
77004;SDS011;67261;53.132;18.006;2024-01-15T13:08:21;6.70;;;2.90;;
77004;SDS011;67261;53.132;18.006;2024-01-15T13:10:51;5.50;;;2.00;;
77004;SDS011;67261;53.132;18.006;2024-01-15T13:13:43;6.70;;;3.10;;
77004;SDS011;67261;53.132;18.006;2024-01-15T13:16:15;6.00;;;2.00;;
77004;SDS011;67261;53.132;18.006;2024-01-15T13:18:47;16.50;;;7.00;;
77004;SDS011;67261;53.132;18.006;2024-01-15T13:21:18;11.50;;;4.80;;
77004;SDS011;67261;53.132;18.006;2024-01-15T13:24:00;4.60;;;1.70;;
77004;SDS011;67261;53.132;18.006;2024-01-15T13:29:09;9.40;;;2.80;;
77004;SDS011;67261;53.132;18.006;2024-01-15T13:31:37;4.70;;;1.60;;
77004;SDS011;67261;53.132;18.006;2024-01-15T13:34:10;8.40;;;2.60;;
77004;SDS011;67261;53.132;18.006;2024-01-15T13:36:40;9.70;;;4.00;;
77004;SDS011;67261;53.132;18.006;2024-01-15T13:39:10;10.10;;;3.90;;
77004;SDS011;67261;53.132;18.006;2024-01-15T13:41:37;7.60;;;3.90;;
77004;SDS011;67261;53.132;18.006;2024-01-15T13:44:04;7.60;;;2.80;;
77004;SDS011;67261;53.132;18.006;2024-01-15T13:46:31;7.50;;;2.60;;
77004;SDS011;67261;53.132;18.006;2024-01-15T13:48:58;6.60;;;2.70;;
77004;SDS011;67261;53.132;18.006;2024-01-15T13:51:25;7.00;;;2.80;;
77004;SDS011;67261;53.132;18.006;2024-01-15T13:53:52;6.00;;;2.30;;
77004;SDS011;67261;53.132;18.006;2024-01-15T13:56:19;6.70;;;3.30;;
77004;SDS011;67261;53.132;18.006;2024-01-15T13:58:47;7.50;;;2.80;;
77004;SDS011;67261;53.132;18.006;2024-01-15T14:01:15;8.60;;;3.70;;
77004;SDS011;67261;53.132;18.006;2024-01-15T14:03:43;7.10;;;3.90;;
77004;SDS011;67261;53.132;18.006;2024-01-15T14:06:11;9.20;;;4.00;;
77004;SDS011;67261;53.132;18.006;2024-01-15T14:08:38;7.10;;;3.30;;
77004;SDS011;67261;53.132;18.006;2024-01-15T14:11:05;9.60;;;4.00;;
77004;SDS011;67261;53.132;18.006;2024-01-15T14:13:33;9.10;;;4.00;;
77004;SDS011;67261;53.132;18.006;2024-01-15T14:16:00;7.90;;;3.10;;
77004;SDS011;67261;53.132;18.006;2024-01-15T14:18:27;6.60;;;3.00;;
77004;SDS011;67261;53.132;18.006;2024-01-15T14:20:54;6.30;;;2.90;;
77004;SDS011;67261;53.132;18.006;2024-01-15T14:23:21;7.70;;;3.50;;
77004;SDS011;67261;53.132;18.006;2024-01-15T14:25:48;5.00;;;2.40;;
77004;SDS011;67261;53.132;18.006;2024-01-15T14:28:15;9.40;;;4.20;;
77004;SDS011;67261;53.132;18.006;2024-01-15T14:30:42;11.80;;;5.30;;
77004;SDS011;67261;53.132;18.006;2024-01-15T14:33:09;6.80;;;3.60;;
77004;SDS011;67261;53.132;18.006;2024-01-15T14:35:37;7.40;;;3.60;;
77004;SDS011;67261;53.132;18.006;2024-01-15T14:38:04;6.10;;;3.20;;
77004;SDS011;67261;53.132;18.006;2024-01-15T14:40:31;5.70;;;3.20;;
77004;SDS011;67261;53.132;18.006;2024-01-15T14:42:58;5.60;;;2.80;;
77004;SDS011;67261;53.132;18.006;2024-01-15T14:45:25;5.30;;;2.00;;
77004;SDS011;67261;53.132;18.006;2024-01-15T14:47:53;6.90;;;3.00;;
77004;SDS011;67261;53.132;18.006;2024-01-15T14:50:20;6.50;;;2.30;;
77004;SDS011;67261;53.132;18.006;2024-01-15T14:52:47;6.40;;;2.40;;
77004;SDS011;67261;53.132;18.006;2024-01-15T14:55:15;6.70;;;2.20;;
77004;SDS011;67261;53.132;18.006;2024-01-15T14:57:42;10.50;;;3.40;;
77004;SDS011;67261;53.132;18.006;2024-01-15T15:00:09;6.60;;;2.80;;
77004;SDS011;67261;53.132;18.006;2024-01-15T15:02:39;5.90;;;2.60;;
77004;SDS011;67261;53.132;18.006;2024-01-15T15:05:07;6.60;;;2.10;;